Time;durP1;ratioP1;P1;durP2;ratioP2;P2;SDS_P1;SDS_P2;PMS_P1;PMS_P2;Temp;Humidity;BMP_temperature;BMP_pressure;BME280_temperature;BME280_humidity;BME280_pressure;Samples;Min_cycle;Max_cycle;Signal;HPM_P1;HPM_P2
2022/04/08 00:00:20;;;;;;;;;0.00;0.00;;;;;12.94;45.42;100177.19;4994109;28;45288;-81
2022/04/08 00:02:45;;;;;;;;;0.00;0.00;;;;;12.78;45.25;100147.91;4995109;28;45310;-81
2022/04/08 00:05:11;;;;;;;;;0.00;0.00;;;;;12.96;45.24;100166.41;4993041;28;46004;-81
2022/04/08 00:07:36;;;;;;;;;0.00;0.00;;;;;12.88;44.95;100159.72;4994311;28;45329;-81
2022/04/08 00:10:06;;;;;;;;;0.33;0.33;;;;;12.91;45.21;100161.34;4994561;28;45255;-81
2022/04/08 00:12:32;;;;;;;;;0.00;0.00;;;;;12.84;45.20;100160.88;4986870;28;45817;-80
2022/04/08 00:14:58;;;;;;;;;0.00;0.00;;;;;12.83;45.50;100169.88;4994352;28;45739;-80
2022/04/08 00:17:24;;;;;;;;;0.00;0.00;;;;;12.80;45.49;100164.69;4993869;28;45573;-80
2022/04/08 00:19:49;;;;;;;;;0.00;0.00;;;;;12.80;45.46;100164.69;4994790;28;45589;-80
2022/04/08 00:22:18;;;;;;;;;0.00;0.00;;;;;12.66;45.39;100130.78;4994412;27;45301;-80
2022/04/08 00:24:43;;;;;;;;;0.00;0.00;;;;;12.78;45.55;100139.88;4993946;28;45725;-80
2022/04/08 00:27:08;;;;;;;;;0.00;0.00;;;;;12.84;45.60;100155.53;4996205;28;45539;-80
2022/04/08 00:29:34;;;;;;;;;0.00;0.00;;;;;12.62;45.60;100115.06;4993543;27;45500;-80
2022/04/08 00:31:59;;;;;;;;;0.00;0.00;;;;;12.88;45.49;100156.22;4994495;27;45500;-80
2022/04/08 00:34:26;;;;;;;;;0.33;0.00;;;;;12.74;45.31;100135.66;4994191;28;45598;-80
2022/04/08 00:36:53;;;;;;;;;0.00;0.00;;;;;12.65;45.52;100115.72;4994317;28;45417;-80
2022/04/08 00:39:18;;;;;;;;;0.00;0.00;;;;;12.87;45.54;100152.66;4992851;28;45335;-80
2022/04/08 00:41:44;;;;;;;;;0.33;0.33;;;;;12.88;45.52;100145.50;4993704;28;45606;-80
2022/04/08 00:44:10;;;;;;;;;0.00;0.00;;;;;12.89;45.62;100149.88;4994065;27;45402;-80
2022/04/08 00:46:37;;;;;;;;;0.33;0.33;;;;;12.78;45.82;100133.66;4993689;27;45325;-80
2022/04/08 00:49:03;;;;;;;;;1.00;0.00;;;;;12.86;45.86;100142.06;4994358;28;45374;-80
2022/04/08 00:51:30;;;;;;;;;0.00;0.00;;;;;12.77;45.83;100126.59;4995476;28;45611;-80
2022/04/08 00:53:56;;;;;;;;;2.33;0.00;;;;;12.74;45.88;100110.75;4996873;28;45313;-80
2022/04/08 00:56:22;;;;;;;;;2.00;0.00;;;;;12.91;46.08;100137.28;4996585;27;45452;-80
2022/04/08 00:58:47;;;;;;;;;1.00;1.00;;;;;12.89;45.96;100134.69;4997149;28;45356;-80
2022/04/08 01:01:13;;;;;;;;;0.00;0.00;;;;;12.91;45.83;100137.28;4997528;27;45424;-80
2022/04/08 01:03:38;;;;;;;;;0.00;0.00;;;;;12.79;46.17;100116.66;4996881;28;45444;-80
2022/04/08 01:06:04;;;;;;;;;0.00;0.00;;;;;12.92;45.90;100130.09;4996767;28;45341;-80
2022/04/08 01:08:30;;;;;;;;;0.00;0.00;;;;;12.93;46.32;100130.03;4996954;28;45323;-80
2022/04/08 01:10:56;;;;;;;;;2.33;0.33;;;;;12.94;46.01;100133.53;4996860;27;45917;-80
2022/04/08 01:13:22;;;;;;;;;0.00;0.00;;;;;12.94;46.10;100137.06;4996773;28;45435;-80
2022/04/08 01:15:47;;;;;;;;;0.00;0.00;;;;;12.97;46.16;100141.38;4996801;28;45329;-80
2022/04/08 01:18:13;;;;;;;;;0.00;0.00;;;;;12.67;45.99;100087.06;4996907;28;45396;-80
2022/04/08 01:20:38;;;;;;;;;0.00;0.00;;;;;12.93;46.14;100123.81;4997053;28;45513;-80
2022/04/08 01:23:05;;;;;;;;;2.33;0.00;;;;;12.92;46.45;100125.59;4997030;28;45851;-80
2022/04/08 01:25:30;;;;;;;;;2.33;0.00;;;;;12.94;45.96;100118.34;4996558;27;45385;-80
2022/04/08 01:27:56;;;;;;;;;0.67;0.00;;;;;12.94;46.33;100125.53;4996721;27;45525;-80
2022/04/08 01:30:21;;;;;;;;;0.00;0.00;;;;;12.86;46.63;100104.63;4996249;27;45696;-80
2022/04/08 01:32:46;;;;;;;;;1.33;0.00;;;;;12.95;46.61;100120.09;4996294;27;46145;-80
2022/04/08 01:35:13;;;;;;;;;1.33;1.33;;;;;12.96;46.46;100112.91;4996204;27;45507;-80
2022/04/08 01:37:38;;;;;;;;;0.00;0.00;;;;;12.95;46.34;100112.06;4996151;27;45455;-80
2022/04/08 01:40:04;;;;;;;;;0.00;0.00;;;;;12.93;46.25;100111.28;4996903;28;45341;-80
2022/04/08 01:42:29;;;;;;;;;0.67;0.00;;;;;12.93;46.76;100107.78;4995815;28;46256;-80
2022/04/08 01:44:55;;;;;;;;;0.00;0.00;;;;;12.81;46.67;100085.34;4996359;27;45329;-80
2022/04/08 01:47:22;;;;;;;;;0.67;0.67;;;;;12.79;46.64;100076.56;4996463;28;45441;-80
2022/04/08 01:49:48;;;;;;;;;0.00;0.00;;;;;12.94;46.61;100102.31;4996596;28;45296;-80
2022/04/08 01:52:14;;;;;;;;;0.00;0.00;;;;;12.90;46.66;100095.44;4995995;27;46164;-80
2022/04/08 01:54:40;;;;;;;;;0.00;0.00;;;;;12.89;46.74;100099.91;4995656;27;45199;-80
2022/04/08 01:57:05;;;;;;;;;0.33;0.00;;;;;12.83;46.79;100096.78;4996160;27;45410;-80
2022/04/08 01:59:31;;;;;;;;;2.00;0.00;;;;;12.72;46.87;100068.06;4996317;27;45470;-80
2022/04/08 02:01:59;;;;;;;;;0.00;0.00;;;;;12.81;46.91;100086.19;4995517;28;50679;-80
2022/04/08 02:04:25;;;;;;;;;0.00;0.00;;;;;12.76;46.78;100082.06;4995621;28;45369;-80
2022/04/08 02:06:50;;;;;;;;;0.67;0.67;;;;;12.66;47.06;100074.63;4995743;27;45551;-80
2022/04/08 02:09:16;;;;;;;;;0.00;0.00;;;;;12.76;46.99;100096.31;4996428;27;45740;-80
2022/04/08 02:11:43;;;;;;;;;0.33;0.00;;;;;12.79;47.06;100095.28;4995328;27;45376;-80
2022/04/08 02:14:08;;;;;;;;;0.00;0.00;;;;;12.56;47.27;100054.78;4996509;27;45444;-80
2022/04/08 02:16:34;;;;;;;;;0.00;0.00;;;;;12.82;46.96;100085.22;4995798;27;45355;-80
2022/04/08 02:18:59;;;;;;;;;0.33;0.33;;;;;12.84;47.23;100085.13;4996216;28;45333;-80
2022/04/08 02:21:25;;;;;;;;;1.67;0.00;;;;;12.86;47.16;100084.06;4995896;27;45468;-80
2022/04/08 02:23:50;;;;;;;;;0.00;0.00;;;;;12.65;46.87;100050.69;4995959;28;45330;-80
2022/04/08 02:26:16;;;;;;;;;0.00;0.00;;;;;12.85;47.42;100079.69;4998047;28;45567;-80
2022/04/08 02:28:42;;;;;;;;;0.67;0.00;;;;;12.68;47.14;100058.50;4998082;28;45425;-80
2022/04/08 02:31:08;;;;;;;;;0.00;0.00;;;;;12.72;47.06;100049.34;4995929;27;46386;-80
2022/04/08 02:33:33;;;;;;;;;0.67;0.00;;;;;12.75;46.94;100049.13;4995530;27;45372;-80
2022/04/08 02:35:58;;;;;;;;;0.33;0.33;;;;;12.92;47.16;100068.59;4995653;28;45412;-80
2022/04/08 02:38:24;;;;;;;;;0.00;0.00;;;;;12.90;47.08;100076.72;4996063;28;45396;-80
2022/04/08 02:40:49;;;;;;;;;0.00;0.00;;;;;12.86;47.29;100070.69;4995153;28;45479;-80
2022/04/08 02:43:15;;;;;;;;;0.67;0.00;;;;;12.86;47.07;100068.03;4995522;27;45395;-80
2022/04/08 02:45:40;;;;;;;;;0.00;0.00;;;;;12.88;47.40;100067.94;4995509;28;45440;-80
2022/04/08 02:48:06;;;;;;;;;2.00;0.00;;;;;12.89;47.26;100054.44;4995805;27;45452;-80
2022/04/08 02:50:31;;;;;;;;;0.00;0.00;;;;;12.63;47.52;100016.03;4995596;28;46195;-80
2022/04/08 02:52:56;;;;;;;;;0.00;0.00;;;;;12.91;47.07;100054.38;4995265;27;45393;-80
2022/04/08 02:55:21;;;;;;;;;0.00;0.00;;;;;12.91;47.49;100042.81;4994818;27;45452;-80
2022/04/08 02:57:48;;;;;;;;;0.33;0.00;;;;;12.92;47.62;100045.38;4995603;28;45206;-80
2022/04/08 03:00:18;;;;;;;;;0.00;0.00;;;;;12.91;47.56;100041.00;4994249;27;47227;-80
2022/04/08 03:02:45;;;;;;;;;0.00;0.00;;;;;12.75;47.43;100013.53;4994153;27;45898;-80
2022/04/08 03:05:11;;;;;;;;;0.00;0.00;;;;;12.88;47.40;100035.84;4995404;28;45370;-80
2022/04/08 03:07:37;;;;;;;;;0.00;0.00;;;;;12.84;47.78;100021.81;4995381;28;45431;-80
2022/04/08 03:10:04;;;;;;;;;0.00;0.00;;;;;12.94;47.77;100031.91;4995053;27;45440;-80
2022/04/08 03:12:30;;;;;;;;;1.33;0.00;;;;;12.88;47.74;100033.19;4995315;28;45386;-80
2022/04/08 03:14:56;;;;;;;;;0.00;0.00;;;;;12.85;47.87;100026.22;4993919;27;45509;-80
2022/04/08 03:17:22;;;;;;;;;0.67;0.67;;;;;12.72;48.09;100003.03;4995463;28;45457;-80
2022/04/08 03:19:47;;;;;;;;;0.67;0.00;;;;;12.90;48.09;100028.59;4995004;28;45652;-80
2022/04/08 03:22:12;;;;;;;;;0.00;0.00;;;;;12.71;48.17;100002.16;4995543;28;45525;-80
2022/04/08 03:24:38;;;;;;;;;0.67;0.00;;;;;12.82;48.60;100020.19;4995416;28;45426;-80
2022/04/08 03:27:03;;;;;;;;;0.00;0.00;;;;;12.67;48.32;99997.97;4995529;27;45566;-80
2022/04/08 03:29:28;;;;;;;;;0.00;0.00;;;;;12.73;48.84;100005.59;4995020;28;45369;-80
2022/04/08 03:31:54;;;;;;;;;0.00;0.00;;;;;12.86;48.94;100019.88;4994127;28;45396;-80
2022/04/08 03:34:19;;;;;;;;;0.67;0.00;;;;;12.85;49.15;100022.66;4993443;28;46807;-80
2022/04/08 03:36:46;;;;;;;;;0.00;0.00;;;;;12.82;49.26;100015.69;4995294;27;45352;-79
2022/04/08 03:39:13;;;;;;;;;0.00;0.00;;;;;12.72;49.75;100005.72;4986513;28;46317;-80
2022/04/08 03:41:39;;;;;;;;;2.67;0.00;;;;;12.74;50.34;100006.47;4994389;28;45274;-80
2022/04/08 03:44:04;;;;;;;;;0.67;0.67;;;;;12.72;50.42;100003.03;4994700;28;45257;-80
2022/04/08 03:46:30;;;;;;;;;1.00;0.33;;;;;12.60;51.65;99978.81;4995120;27;45434;-80
2022/04/08 03:48:55;;;;;;;;;2.00;0.00;;;;;12.71;51.67;100001.28;4994652;28;45440;-80
2022/04/08 03:51:20;;;;;;;;;0.33;0.33;;;;;12.52;52.25;99961.53;4994198;27;60076;-80
2022/04/08 03:53:45;;;;;;;;;1.33;0.00;;;;;12.68;52.42;99980.97;4994741;28;45538;-80
2022/04/08 03:56:11;;;;;;;;;0.33;0.33;;;;;12.71;53.38;99979.91;4994785;27;45321;-80
2022/04/08 03:58:36;;;;;;;;;0.67;0.67;;;;;12.69;54.17;99972.00;4994755;28;46124;-80
2022/04/08 04:01:02;;;;;;;;;1.00;1.00;;;;;12.08;54.01;99858.38;4994107;28;45817;-81
2022/04/08 04:03:27;;;;;;;;;0.00;0.00;;;;;12.57;54.44;99938.91;4994857;28;45813;-80
2022/04/08 04:05:53;;;;;;;;;0.00;0.00;;;;;12.70;54.70;99959.50;4994958;28;45380;-80
2022/04/08 04:08:21;;;;;;;;;0.67;0.67;;;;;12.54;54.64;99925.72;4991068;28;45864;-81
2022/04/08 04:10:48;;;;;;;;;0.00;0.00;;;;;12.44;54.22;99920.13;4994249;27;45621;-80
2022/04/08 04:13:15;;;;;;;;;0.00;0.00;;;;;12.47;54.96;99908.38;4990783;27;45868;-81
2022/04/08 04:15:41;;;;;;;;;0.33;0.33;;;;;12.65;54.81;99939.25;4992044;27;45432;-81
2022/04/08 04:18:06;;;;;;;;;0.67;0.00;;;;;12.52;55.07;99922.28;4993915;27;45288;-81
2022/04/08 04:20:32;;;;;;;;;0.00;0.00;;;;;12.38;56.35;99900.94;4993638;28;45434;-80
2022/04/08 04:22:57;;;;;;;;;3.00;0.00;;;;;12.60;56.55;99922.66;4994785;28;45395;-81
2022/04/08 04:25:23;;;;;;;;;1.33;0.67;;;;;12.50;57.15;99896.63;4993300;27;45479;-81
2022/04/08 04:27:48;;;;;;;;;0.00;0.00;;;;;12.55;57.21;99905.19;4995132;28;46049;-81
2022/04/08 04:30:13;;;;;;;;;1.00;0.00;;;;;12.64;57.45;99915.28;4993730;28;45358;-81
2022/04/08 04:32:39;;;;;;;;;0.33;0.00;;;;;12.63;56.59;99910.91;4994077;27;45355;-81
2022/04/08 04:35:07;;;;;;;;;0.00;0.00;;;;;12.64;57.74;99897.44;4993874;28;45508;-81
2022/04/08 04:37:36;;;;;;;;;2.00;0.33;;;;;12.63;57.78;99890.38;4995766;28;46084;-81
2022/04/08 04:40:03;;;;;;;;;2.67;0.67;;;;;12.64;58.22;99893.91;5006860;28;45415;-81
2022/04/08 04:42:32;;;;;;;;;0.00;0.00;;;;;12.48;58.65;99864.66;4996188;28;45825;-81
2022/04/08 04:44:57;;;;;;;;;2.33;0.67;;;;;12.57;58.06;99880.09;4995293;28;45353;-81
2022/04/08 04:47:23;;;;;;;;;1.00;1.00;;;;;12.61;58.69;99875.38;4992864;28;46179;-81
2022/04/08 04:49:49;;;;;;;;;1.00;0.67;;;;;12.57;58.56;99857.84;4994133;27;45564;-81
2022/04/08 04:52:14;;;;;;;;;0.00;0.00;;;;;12.60;58.35;99865.66;4993927;27;45528;-81
2022/04/08 04:54:41;;;;;;;;;2.67;1.00;;;;;12.45;57.53;99824.75;4993941;28;45250;-81
2022/04/08 04:57:06;;;;;;;;;1.00;0.00;;;;;12.50;57.84;99832.47;4993657;28;45563;-81
2022/04/08 04:59:31;;;;;;;;;1.67;1.00;;;;;12.56;58.18;99838.28;4993125;28;45320;-82
2022/04/08 05:01:57;;;;;;;;;1.67;0.67;;;;;12.58;57.88;99836.34;4996967;28;45542;-81
2022/04/08 05:04:22;;;;;;;;;0.67;0.67;;;;;12.58;57.94;99832.84;5003889;28;45557;-82
2022/04/08 05:06:47;;;;;;;;;0.00;0.00;;;;;12.59;58.89;99824.69;4993293;28;52209;-81
2022/04/08 05:09:13;;;;;;;;;0.00;0.00;;;;;12.58;58.80;99814.13;4993753;28;45510;-81
2022/04/08 05:11:40;;;;;;;;;0.00;0.00;;;;;12.56;58.24;99808.03;4997154;28;45519;-82
2022/04/08 05:14:06;;;;;;;;;0.67;0.67;;;;;12.55;58.80;99807.16;4993408;28;45367;-82
2022/04/08 05:16:31;;;;;;;;;0.00;0.00;;;;;12.40;58.93;99776.97;4993064;27;45450;-81
2022/04/08 05:18:56;;;;;;;;;1.00;1.00;;;;;12.54;58.84;99797.41;4993476;28;45373;-82
2022/04/08 05:21:22;;;;;;;;;2.33;0.33;;;;;12.46;58.54;99781.06;5030709;27;45451;-81
2022/04/08 05:23:47;;;;;;;;;0.00;0.00;;;;;12.24;58.49;99741.53;4992082;28;45537;-83
2022/04/08 05:26:14;;;;;;;;;0.00;0.00;;;;;12.11;58.01;99713.94;4994210;28;46355;-81
2022/04/08 05:28:39;;;;;;;;;0.00;0.00;;;;;12.20;58.90;99722.19;5002767;28;45501;-82
2022/04/08 05:31:05;;;;;;;;;1.33;0.00;;;;;12.26;58.48;99731.59;4993755;28;45435;-82
2022/04/08 05:33:30;;;;;;;;;1.00;0.00;;;;;12.41;58.70;99746.63;4992429;27;45521;-82
2022/04/08 05:35:55;;;;;;;;;0.00;0.00;;;;;12.46;58.12;99749.84;4992872;27;45269;-81
2022/04/08 05:38:21;;;;;;;;;0.00;0.00;;;;;12.55;59.21;99761.72;4995519;28;60498;-80
2022/04/08 05:40:46;;;;;;;;;0.00;0.00;;;;;12.50;58.91;99749.63;4988838;28;46696;-81
2022/04/08 05:43:11;;;;;;;;;4.00;0.67;;;;;12.55;59.08;99744.81;4996156;28;45429;-81
2022/04/08 05:45:37;;;;;;;;;2.67;0.00;;;;;12.54;58.81;99735.09;4991194;27;50914;-83
2022/04/08 05:48:06;;;;;;;;;0.00;0.00;;;;;12.45;58.20;99726.75;4996134;28;45592;-81
2022/04/08 05:50:31;;;;;;;;;0.33;0.33;;;;;12.46;59.13;99724.94;4996392;28;45677;-81
2022/04/08 05:52:57;;;;;;;;;0.67;0.67;;;;;12.52;59.08;99720.97;4998172;28;45645;-81
2022/04/08 05:55:24;;;;;;;;;0.00;0.00;;;;;12.48;58.51;99730.16;4997744;28;45610;-83
2022/04/08 05:57:53;;;;;;;;;0.67;0.00;;;;;12.36;59.58;99699.78;4996841;28;45559;-80
2022/04/08 06:00:20;;;;;;;;;0.67;0.67;;;;;12.43;58.77;99714.44;4998445;27;45487;-80
2022/04/08 06:02:47;;;;;;;;;2.33;1.00;;;;;12.10;59.12;99659.66;5002883;28;45663;-81
2022/04/08 06:05:15;;;;;;;;;0.00;0.00;;;;;12.33;58.70;99694.66;4993720;28;46115;-80
2022/04/08 06:07:49;;;;;;;;;0.00;0.00;;;;;12.27;59.87;99687.03;4992576;28;45867;-80
2022/04/08 06:10:26;;;;;;;;;1.33;0.33;;;;;12.28;59.73;99686.09;4998547;27;45558;-80
2022/04/08 06:12:52;;;;;;;;;0.33;0.33;;;;;12.30;59.94;99690.38;4995476;27;45551;-80
2022/04/08 06:15:19;;;;;;;;;0.00;0.00;;;;;12.28;60.39;99689.63;4995471;28;45356;-80
2022/04/08 06:17:45;;;;;;;;;1.67;1.00;;;;;12.19;60.92;99669.72;4995632;27;45504;-80
2022/04/08 06:20:18;;;;;;;;;0.33;0.33;;;;;12.21;60.57;99675.81;4994684;28;45563;-79
2022/04/08 06:22:45;;;;;;;;;0.00;0.00;;;;;12.01;61.57;99634.44;4997421;28;45410;-80
2022/04/08 06:25:15;;;;;;;;;0.00;0.00;;;;;12.20;61.54;99662.59;4994871;27;45506;-80
2022/04/08 06:27:41;;;;;;;;;1.33;0.00;;;;;12.20;61.07;99659.91;4991156;28;45901;-80
2022/04/08 06:30:10;;;;;;;;;0.00;0.00;;;;;12.18;61.37;99648.47;4994315;27;45382;-81
2022/04/08 06:32:37;;;;;;;;;1.67;0.33;;;;;12.16;61.15;99637.88;4995295;28;45621;-81
2022/04/08 06:35:03;;;;;;;;;1.00;1.00;;;;;12.19;62.23;99634.13;4994278;27;46323;-81
2022/04/08 06:37:28;;;;;;;;;0.33;0.33;;;;;12.18;61.49;99632.44;4994718;27;45374;-81
2022/04/08 06:39:55;;;;;;;;;0.00;0.00;;;;;11.98;61.34;99596.41;4995449;27;45355;-81
2022/04/08 06:42:21;;;;;;;;;2.67;1.33;;;;;12.22;61.66;99633.91;4994681;27;45279;-81
2022/04/08 06:44:46;;;;;;;;;1.67;0.33;;;;;12.25;61.65;99647.94;4996374;27;45988;-81
2022/04/08 06:47:12;;;;;;;;;1.33;0.00;;;;;11.95;61.97;99591.28;4994715;27;46459;-81
2022/04/08 06:49:43;;;;;;;;;0.00;0.00;;;;;12.28;61.51;99636.19;4998634;28;45512;-82
2022/04/08 06:52:09;;;;;;;;;1.67;0.67;;;;;12.27;62.14;99642.50;4992194;28;45436;-81
2022/04/08 06:54:34;;;;;;;;;0.00;0.00;;;;;12.25;63.70;99642.59;5000223;28;45660;-82
2022/04/08 06:56:59;;;;;;;;;1.33;1.00;;;;;12.25;62.93;99639.94;5001506;28;45481;-81
2022/04/08 06:59:25;;;;;;;;;0.00;0.00;;;;;12.25;61.37;99647.09;4996373;28;45476;-80
2022/04/08 07:01:51;;;;;;;;;1.00;1.00;;;;;12.25;61.80;99639.94;5001233;28;45495;-81
2022/04/08 07:04:16;;;;;;;;;1.00;1.00;;;;;12.28;62.78;99646.03;4994382;27;45961;-81
2022/04/08 07:06:41;;;;;;;;;0.67;0.67;;;;;12.25;61.21;99642.59;4995256;27;46061;-80
2022/04/08 07:09:07;;;;;;;;;1.33;1.00;;;;;12.25;62.21;99634.56;4995103;28;45338;-81
2022/04/08 07:11:32;;;;;;;;;3.67;3.33;;;;;12.16;61.55;99615.66;4995051;28;45527;-79
2022/04/08 07:13:57;;;;;;;;;10.33;8.00;;;;;11.99;62.26;99576.75;4995140;27;45438;-79
2022/04/08 07:16:23;;;;;;;;;2.00;2.00;;;;;12.22;62.29;99613.44;4994552;28;49549;-79
2022/04/08 07:18:49;;;;;;;;;3.00;2.00;;;;;12.10;62.29;99581.34;4994798;27;45340;-79
2022/04/08 07:21:14;;;;;;;;;1.67;1.67;;;;;12.25;61.60;99604.34;4995500;28;45575;-79
2022/04/08 07:23:39;;;;;;;;;3.00;2.00;;;;;12.26;62.23;99598.03;4999453;28;45427;-79
2022/04/08 07:26:05;;;;;;;;;0.67;0.67;;;;;12.10;61.88;99571.50;4996517;27;47124;-79
2022/04/08 07:28:32;;;;;;;;;2.00;1.00;;;;;12.08;62.11;99556.56;4998234;27;45571;-79
2022/04/08 07:30:57;;;;;;;;;1.00;1.00;;;;;12.23;62.18;99572.38;4999890;27;45766;-78
2022/04/08 07:33:22;;;;;;;;;1.67;0.33;;;;;12.10;61.79;99541.28;4998567;27;45736;-79
2022/04/08 07:35:48;;;;;;;;;0.00;0.00;;;;;12.30;62.03;99570.13;4993839;28;45445;-79
2022/04/08 07:38:14;;;;;;;;;2.00;2.00;;;;;12.30;62.22;99567.47;4997882;28;47859;-79
2022/04/08 07:40:39;;;;;;;;;3.00;1.33;;;;;12.22;62.08;99551.09;4993384;27;45743;-79
2022/04/08 07:43:05;;;;;;;;;1.67;1.67;;;;;12.15;62.15;99515.09;4993697;27;45943;-82
2022/04/08 07:45:30;;;;;;;;;1.67;0.67;;;;;12.30;62.29;99538.09;4992517;28;45922;-83
2022/04/08 07:47:58;;;;;;;;;1.00;1.00;;;;;12.31;62.68;99530.91;4994023;28;45543;-80
2022/04/08 07:50:25;;;;;;;;;3.67;2.67;;;;;12.25;62.72;99516.19;4995083;28;45514;-81
2022/04/08 07:52:50;;;;;;;;;3.67;1.67;;;;;11.89;63.34;99450.16;4995230;28;45445;-79
2022/04/08 07:55:20;;;;;;;;;1.67;1.67;;;;;12.19;63.45;99496.09;4994090;27;45370;-79
2022/04/08 07:57:46;;;;;;;;;46.75;37.50;;;;;12.27;63.26;99500.91;4995371;28;45315;-82
2022/04/08 08:00:14;;;;;;;;;4.33;1.67;;;;;12.20;63.29;99476.44;4993250;28;45397;-79
2022/04/08 08:02:40;;;;;;;;;3.00;2.33;;;;;12.16;63.16;99463.41;4992275;28;45518;-79
2022/04/08 08:05:06;;;;;;;;;1.00;1.00;;;;;12.18;62.44;99464.16;5002504;28;45501;-80
2022/04/08 08:07:42;;;;;;;;;2.33;1.67;;;;;12.00;62.63;99437.78;5011979;27;45455;-81
2022/04/08 08:10:07;;;;;;;;;1.00;0.67;;;;;12.05;62.13;99434.78;4994176;27;45383;-81
2022/04/08 08:12:32;;;;;;;;;1.33;1.33;;;;;12.09;62.44;99449.63;4992551;27;45484;-81
2022/04/08 08:14:58;;;;;;;;;2.33;1.67;;;;;12.07;62.52;99448.88;4993835;28;45472;-79
2022/04/08 08:17:23;;;;;;;;;1.33;1.33;;;;;12.12;62.70;99454.75;4994101;28;47510;-81
2022/04/08 08:19:48;;;;;;;;;1.67;0.67;;;;;12.13;63.03;99460.97;4996883;27;45421;-81
2022/04/08 08:22:14;;;;;;;;;1.67;1.67;;;;;12.10;62.91;99469.16;4992946;28;45415;-79
2022/04/08 08:24:39;;;;;;;;;2.00;2.00;;;;;12.02;63.50;99429.66;4992808;27;46498;-81
2022/04/08 08:27:05;;;;;;;;;0.67;0.67;;;;;12.08;63.74;99423.91;4993289;28;45329;-81
2022/04/08 08:29:30;;;;;;;;;3.33;3.33;;;;;11.93;63.77;99398.28;4993018;27;45466;-79
2022/04/08 08:31:55;;;;;;;;;4.00;4.00;;;;;12.03;63.95;99410.88;4995182;28;57685;-81
2022/04/08 08:34:21;;;;;;;;;1.67;1.67;;;;;12.06;63.87;99423.16;4993333;28;45191;-81
2022/04/08 08:36:46;;;;;;;;;3.33;3.33;;;;;11.80;64.12;99376.91;4993525;28;45211;-82
2022/04/08 08:39:11;;;;;;;;;1.67;1.67;;;;;12.09;64.34;99403.38;4994893;28;45289;-81
2022/04/08 08:41:37;;;;;;;;;3.33;2.67;;;;;11.87;63.74;99364.88;4993713;28;46435;-80
2022/04/08 08:44:02;;;;;;;;;2.67;2.67;;;;;11.84;64.42;99370.38;4992135;28;45275;-79
2022/04/08 08:46:33;;;;;;;;;3.00;2.33;;;;;12.01;64.18;99404.78;4996195;27;45495;-81
2022/04/08 08:48:59;;;;;;;;;4.67;2.33;;;;;11.86;64.23;99376.44;4994873;28;45521;-80
2022/04/08 08:51:25;;;;;;;;;3.67;3.67;;;;;11.77;64.30;99363.75;4992079;28;45393;-81
2022/04/08 08:53:50;;;;;;;;;3.00;3.00;;;;;11.92;64.31;99386.75;4992403;27;45416;-81
2022/04/08 08:56:15;;;;;;;;;5.33;3.33;;;;;11.91;64.16;99376.16;4998320;28;53861;-81
2022/04/08 08:58:41;;;;;;;;;3.00;1.67;;;;;11.59;64.27;99300.06;4992890;28;45293;-81
2022/04/08 09:01:09;;;;;;;;;6.00;3.00;;;;;11.84;64.75;99349.84;4991749;28;45411;-79
2022/04/08 09:03:35;;;;;;;;;4.00;4.00;;;;;11.50;64.89;99294.53;4995544;28;45364;-80
2022/04/08 09:06:06;;;;;;;;;1.00;1.00;;;;;11.74;65.04;99327.47;4992682;27;45277;-80
2022/04/08 09:08:33;;;;;;;;;3.00;3.00;;;;;11.70;65.10;99314.44;4994039;28;45251;-77
2022/04/08 09:10:59;;;;;;;;;2.67;2.67;;;;;11.63;65.34;99300.69;4993074;28;46135;-81
2022/04/08 09:13:24;;;;;;;;;3.00;3.00;;;;;11.34;66.25;99266.25;4993923;28;45497;-82
2022/04/08 09:15:58;;;;;;;;;3.33;3.33;;;;;11.60;65.31;99332.94;5002500;27;45824;-82
2022/04/08 09:18:29;;;;;;;;;2.67;2.67;;;;;11.47;66.39;99314.28;4998718;28;45291;-83
2022/04/08 09:20:55;;;;;;;;;2.67;2.67;;;;;11.20;66.03;99264.56;5002508;28;45645;-82
2022/04/08 09:23:21;;;;;;;;;2.00;2.00;;;;;11.07;66.18;99253.03;5000069;28;45357;-82
2022/04/08 09:25:48;;;;;;;;;1.00;1.00;;;;;11.05;65.99;99278.09;4995453;27;45438;-82
2022/04/08 09:28:17;;;;;;;;;3.00;3.00;;;;;11.24;66.98;99329.22;4994259;28;45458;-81
2022/04/08 09:30:49;;;;;;;;;4.00;4.00;;;;;11.16;67.67;99270.22;4994003;28;45514;-83
2022/04/08 09:33:21;;;;;;;;;3.00;3.00;;;;;11.33;67.35;99267.22;4993153;27;45779;-80
2022/04/08 09:35:48;;;;;;;;;3.67;2.33;;;;;11.09;66.50;99331.09;4995490;28;45446;-83
2022/04/08 09:38:27;;;;;;;;;7.67;7.67;;;;;11.24;66.36;99389.69;4994275;27;45479;-82
2022/04/08 09:41:06;;;;;;;;;2.33;2.33;;;;;11.21;66.88;99332.06;4994261;28;45607;-82
2022/04/08 09:43:36;;;;;;;;;1.67;1.67;;;;;11.08;66.40;99317.91;4993705;27;45485;-83
2022/04/08 09:46:18;;;;;;;;;1.33;1.33;;;;;11.13;66.95;99348.63;4995159;27;45492;-81
2022/04/08 09:48:44;;;;;;;;;2.67;1.67;;;;;11.11;67.33;99331.00;4987961;28;45412;-82
2022/04/08 09:51:23;;;;;;;;;3.00;2.00;;;;;11.08;66.86;99324.09;4994610;28;45963;-82
2022/04/08 09:54:00;;;;;;;;;2.67;2.67;;;;;11.04;66.40;99317.25;4994197;28;45670;-83
2022/04/08 09:56:27;;;;;;;;;0.33;0.33;;;;;10.96;66.24;99332.94;4994116;27;45530;-81
2022/04/08 09:59:09;;;;;;;;;1.00;1.00;;;;;11.07;67.17;99353.50;4997157;28;45382;-81
2022/04/08 10:01:36;;;;;;;;;3.00;2.00;;;;;11.06;66.60;99336.66;4992053;27;45305;-83
2022/04/08 10:04:04;;;;;;;;;2.00;2.00;;;;;10.89;67.08;99312.97;4995698;27;45491;-83
2022/04/08 10:06:30;;;;;;;;;3.33;3.00;;;;;11.10;67.51;99359.50;4996889;28;45349;-83
2022/04/08 10:08:57;;;;;;;;;5.33;3.00;;;;;11.20;67.61;99378.38;4995494;28;45524;-82
2022/04/08 10:11:35;;;;;;;;;1.33;1.33;;;;;11.19;66.60;99380.22;4994975;28;45444;-81
2022/04/08 10:14:35;;;;;;;;;1.00;1.00;;;;;10.88;67.06;99298.78;4997207;28;45536;-82
2022/04/08 10:17:02;;;;;;;;;3.33;3.33;;;;;11.06;66.90;99309.16;4988811;28;45404;-82
2022/04/08 10:19:30;;;;;;;;;5.00;5.00;;;;;11.19;67.18;99300.19;4995117;27;45678;-82
2022/04/08 10:21:56;;;;;;;;;4.00;4.00;;;;;11.11;67.16;99269.69;4993973;28;46593;-82
2022/04/08 10:24:30;;;;;;;;;3.00;3.00;;;;;11.26;68.44;99291.75;4992537;28;45518;-82
2022/04/08 10:27:05;;;;;;;;;3.33;3.00;;;;;11.20;75.73;99285.88;4994341;27;45546;-86
2022/04/08 10:29:35;;;;;;;;;3.00;3.00;;;;;10.90;77.46;99213.38;4994718;28;45443;-82
2022/04/08 10:32:21;;;;;;;;;3.00;3.00;;;;;11.06;77.97;99202.50;4994171;28;47145;-82
2022/04/08 10:34:47;;;;;;;;;2.67;2.67;;;;;10.76;79.43;99180.53;4994719;27;45461;-82
2022/04/08 10:37:21;;;;;;;;;4.00;4.00;;;;;10.93;74.60;99226.50;4994896;28;45502;-82
2022/04/08 10:40:02;;;;;;;;;4.00;4.00;;;;;10.87;72.83;99154.97;4986120;28;45426;-82
2022/04/08 10:42:29;;;;;;;;;5.33;5.33;;;;;10.81;72.34;99144.72;4994410;28;46433;-81
2022/04/08 10:44:55;;;;;;;;;5.67;5.67;;;;;10.78;72.55;99191.09;4994599;27;45630;-81
2022/04/08 10:47:21;;;;;;;;;3.67;3.67;;;;;10.72;72.36;99184.41;4994638;28;45348;-80
2022/04/08 10:49:51;;;;;;;;;3.00;3.00;;;;;10.88;71.73;99224.13;4995195;27;45421;-83
2022/04/08 10:52:25;;;;;;;;;4.33;2.33;;;;;10.81;70.83;99262.00;4997002;28;46161;-83
2022/04/08 10:54:51;;;;;;;;;3.67;3.00;;;;;10.87;71.75;99278.41;4993672;28;45351;-83
2022/04/08 10:57:34;;;;;;;;;3.00;3.00;;;;;10.89;71.47;99251.66;5004964;28;45360;-83
2022/04/08 10:59:59;;;;;;;;;5.00;4.00;;;;;10.93;71.19;99190.03;5010140;27;45574;-83
2022/04/08 11:02:34;;;;;;;;;4.00;4.00;;;;;10.67;71.02;99156.34;4994124;27;46491;-83
2022/04/08 11:05:07;;;;;;;;;3.00;3.00;;;;;10.92;70.99;99246.97;4993497;27;45457;-83
2022/04/08 11:07:33;;;;;;;;;4.00;3.00;;;;;10.98;70.90;99232.38;4993847;27;45421;-84
2022/04/08 11:09:59;;;;;;;;;2.00;2.00;;;;;11.04;70.57;99207.09;4993720;28;45677;-83
2022/04/08 11:12:25;;;;;;;;;2.00;2.00;;;;;10.80;70.00;99157.22;4993870;28;45357;-83
2022/04/08 11:14:55;;;;;;;;;3.00;2.00;;;;;10.73;69.58;99159.44;4993669;27;45436;-83
2022/04/08 11:17:21;;;;;;;;;5.00;2.00;;;;;11.06;70.44;99200.69;4993834;27;45793;-83
2022/04/08 11:19:50;;;;;;;;;2.00;1.33;;;;;11.09;70.08;99183.63;4994324;27;45698;-84
2022/04/08 11:22:15;;;;;;;;;3.00;3.00;;;;;11.13;70.10;99177.97;4992914;27;46255;-82
2022/04/08 11:24:41;;;;;;;;;4.00;4.00;;;;;11.12;69.82;99164.72;4993687;28;45361;-81
2022/04/08 11:27:08;;;;;;;;;3.33;3.33;;;;;11.03;69.38;99160.91;4992847;28;45424;-81
2022/04/08 11:29:36;;;;;;;;;5.00;5.00;;;;;11.16;69.73;99180.41;4993649;28;45475;-81